Russell, North Dakota
Current Conditions -  °F | °C
As of 6:58 PM on Friday 24 Oct 2014 (Local Time) from KMIB Reporting Station
Clear Clear  
Wind Chill: 12°   Ceiling: Unl
Heat Index: 12°   Visibility: 10mi
Dew Point: -1°   Wind: 10mph
Humidity: 40%   Direction: 270°W
Pressure: 29.9"   Gusts: NA
Location:  48.6879°N, 101.011°W
Report Text: KMIB 242358Z AUTO 27009KT 10SM CLR 12/M01 A2990 RMK AO2 SLP137 T01181014 10187 20118 52024 $
Loading
Personal Weather Stations






























Interactive Weather Map
Tropical Storm Tracking
New forecast layout! Learn more

10-Day Weather Forecast

Advertisements
Track Severe Weather on mobile